sensor_id;sensor_type;location;lat;lon;timestamp;P1;durP1;ratioP1;P2;durP2;ratioP2
11090;SDS011;5599;52.210;21.046;2022-12-20T00:00:44;36.73;;;22.30;;
11090;SDS011;5599;52.210;21.046;2022-12-20T00:03:14;33.80;;;22.27;;
11090;SDS011;5599;52.210;21.046;2022-12-20T00:05:43;37.20;;;22.20;;
11090;SDS011;5599;52.210;21.046;2022-12-20T00:08:12;34.40;;;22.83;;
11090;SDS011;5599;52.210;21.046;2022-12-20T00:10:42;35.87;;;22.67;;
11090;SDS011;5599;52.210;21.046;2022-12-20T00:13:14;35.27;;;22.57;;
11090;SDS011;5599;52.210;21.046;2022-12-20T00:15:43;35.13;;;22.20;;
11090;SDS011;5599;52.210;21.046;2022-12-20T00:18:12;36.10;;;23.10;;
11090;SDS011;5599;52.210;21.046;2022-12-20T00:20:41;35.70;;;21.87;;
11090;SDS011;5599;52.210;21.046;2022-12-20T00:23:10;34.60;;;22.67;;
11090;SDS011;5599;52.210;21.046;2022-12-20T00:25:39;41.33;;;22.57;;
11090;SDS011;5599;52.210;21.046;2022-12-20T00:28:08;35.27;;;23.13;;
11090;SDS011;5599;52.210;21.046;2022-12-20T00:30:38;35.40;;;22.03;;
11090;SDS011;5599;52.210;21.046;2022-12-20T00:33:07;35.47;;;22.27;;
11090;SDS011;5599;52.210;21.046;2022-12-20T00:35:40;38.27;;;23.67;;
11090;SDS011;5599;52.210;21.046;2022-12-20T00:38:09;34.33;;;22.17;;
11090;SDS011;5599;52.210;21.046;2022-12-20T00:40:38;37.60;;;22.40;;
11090;SDS011;5599;52.210;21.046;2022-12-20T00:43:08;36.00;;;22.60;;
11090;SDS011;5599;52.210;21.046;2022-12-20T00:45:37;35.23;;;21.43;;
11090;SDS011;5599;52.210;21.046;2022-12-20T00:48:07;35.73;;;22.57;;
11090;SDS011;5599;52.210;21.046;2022-12-20T00:50:36;38.83;;;22.63;;
11090;SDS011;5599;52.210;21.046;2022-12-20T00:53:05;37.47;;;23.60;;
11090;SDS011;5599;52.210;21.046;2022-12-20T00:55:39;34.30;;;21.77;;
11090;SDS011;5599;52.210;21.046;2022-12-20T00:58:09;33.60;;;21.23;;
11090;SDS011;5599;52.210;21.046;2022-12-20T01:00:40;34.47;;;21.70;;
11090;SDS011;5599;52.210;21.046;2022-12-20T01:03:09;34.17;;;21.60;;
11090;SDS011;5599;52.210;21.046;2022-12-20T01:05:38;35.73;;;23.23;;
11090;SDS011;5599;52.210;21.046;2022-12-20T01:08:07;33.77;;;22.83;;
11090;SDS011;5599;52.210;21.046;2022-12-20T01:10:36;34.27;;;22.83;;
11090;SDS011;5599;52.210;21.046;2022-12-20T01:13:05;35.73;;;22.80;;
11090;SDS011;5599;52.210;21.046;2022-12-20T01:15:34;34.30;;;22.30;;
11090;SDS011;5599;52.210;21.046;2022-12-20T01:18:05;35.90;;;22.83;;
11090;SDS011;5599;52.210;21.046;2022-12-20T01:20:34;38.23;;;23.37;;
11090;SDS011;5599;52.210;21.046;2022-12-20T01:23:03;39.17;;;23.43;;
11090;SDS011;5599;52.210;21.046;2022-12-20T01:25:32;36.60;;;22.83;;
11090;SDS011;5599;52.210;21.046;2022-12-20T01:28:01;38.47;;;23.40;;
11090;SDS011;5599;52.210;21.046;2022-12-20T01:30:30;39.17;;;23.90;;
11090;SDS011;5599;52.210;21.046;2022-12-20T01:32:59;36.20;;;23.10;;
11090;SDS011;5599;52.210;21.046;2022-12-20T01:35:30;32.97;;;20.33;;
11090;SDS011;5599;52.210;21.046;2022-12-20T01:37:59;32.60;;;20.57;;
11090;SDS011;5599;52.210;21.046;2022-12-20T01:40:28;28.83;;;20.93;;
11090;SDS011;5599;52.210;21.046;2022-12-20T01:42:57;34.37;;;22.07;;
11090;SDS011;5599;52.210;21.046;2022-12-20T01:45:27;35.50;;;21.00;;
11090;SDS011;5599;52.210;21.046;2022-12-20T01:47:57;32.40;;;20.07;;
11090;SDS011;5599;52.210;21.046;2022-12-20T01:50:27;29.40;;;19.57;;
11090;SDS011;5599;52.210;21.046;2022-12-20T01:52:58;34.13;;;21.13;;
11090;SDS011;5599;52.210;21.046;2022-12-20T01:55:28;31.47;;;20.30;;
11090;SDS011;5599;52.210;21.046;2022-12-20T01:57:59;31.93;;;20.23;;
11090;SDS011;5599;52.210;21.046;2022-12-20T02:00:31;32.10;;;20.83;;
11090;SDS011;5599;52.210;21.046;2022-12-20T02:03:02;35.53;;;22.10;;
11090;SDS011;5599;52.210;21.046;2022-12-20T02:05:34;35.63;;;21.60;;
11090;SDS011;5599;52.210;21.046;2022-12-20T02:08:06;33.23;;;21.43;;
11090;SDS011;5599;52.210;21.046;2022-12-20T02:10:39;33.40;;;20.57;;
11090;SDS011;5599;52.210;21.046;2022-12-20T02:13:19;32.03;;;20.77;;
11090;SDS011;5599;52.210;21.046;2022-12-20T02:15:56;30.23;;;20.00;;
11090;SDS011;5599;52.210;21.046;2022-12-20T02:18:26;32.60;;;21.43;;
11090;SDS011;5599;52.210;21.046;2022-12-20T02:21:07;32.33;;;20.57;;
11090;SDS011;5599;52.210;21.046;2022-12-20T02:24:02;29.00;;;20.13;;
11090;SDS011;5599;52.210;21.046;2022-12-20T02:30:11;32.37;;;20.17;;
11090;SDS011;5599;52.210;21.046;2022-12-20T02:32:47;29.90;;;19.43;;
11090;SDS011;5599;52.210;21.046;2022-12-20T02:35:25;30.60;;;20.27;;
11090;SDS011;5599;52.210;21.046;2022-12-20T02:37:55;31.67;;;20.37;;
11090;SDS011;5599;52.210;21.046;2022-12-20T02:40:26;31.00;;;20.30;;
11090;SDS011;5599;52.210;21.046;2022-12-20T02:43:00;28.27;;;19.30;;
11090;SDS011;5599;52.210;21.046;2022-12-20T02:45:53;29.30;;;19.20;;
11090;SDS011;5599;52.210;21.046;2022-12-20T02:48:24;28.60;;;19.93;;
11090;SDS011;5599;52.210;21.046;2022-12-20T02:50:57;29.60;;;19.60;;
11090;SDS011;5599;52.210;21.046;2022-12-20T02:53:27;27.97;;;19.17;;
11090;SDS011;5599;52.210;21.046;2022-12-20T02:55:58;29.03;;;19.33;;
11090;SDS011;5599;52.210;21.046;2022-12-20T02:58:33;29.17;;;19.67;;
11090;SDS011;5599;52.210;21.046;2022-12-20T03:01:08;30.00;;;19.27;;
11090;SDS011;5599;52.210;21.046;2022-12-20T03:03:41;28.87;;;19.40;;
11090;SDS011;5599;52.210;21.046;2022-12-20T03:06:11;29.93;;;20.17;;
11090;SDS011;5599;52.210;21.046;2022-12-20T03:08:40;28.73;;;19.30;;
11090;SDS011;5599;52.210;21.046;2022-12-20T03:11:10;29.10;;;19.40;;
11090;SDS011;5599;52.210;21.046;2022-12-20T03:13:39;25.67;;;18.10;;
11090;SDS011;5599;52.210;21.046;2022-12-20T03:16:09;28.73;;;18.40;;
11090;SDS011;5599;52.210;21.046;2022-12-20T03:18:38;28.87;;;18.97;;
11090;SDS011;5599;52.210;21.046;2022-12-20T03:21:08;29.80;;;18.93;;
11090;SDS011;5599;52.210;21.046;2022-12-20T03:23:37;27.37;;;18.77;;
11090;SDS011;5599;52.210;21.046;2022-12-20T03:26:06;28.13;;;18.67;;
11090;SDS011;5599;52.210;21.046;2022-12-20T03:28:40;28.07;;;19.07;;
11090;SDS011;5599;52.210;21.046;2022-12-20T03:31:15;25.20;;;17.90;;
11090;SDS011;5599;52.210;21.046;2022-12-20T03:33:49;28.77;;;18.37;;
11090;SDS011;5599;52.210;21.046;2022-12-20T03:36:18;28.80;;;18.50;;
11090;SDS011;5599;52.210;21.046;2022-12-20T03:38:57;24.93;;;18.33;;
11090;SDS011;5599;52.210;21.046;2022-12-20T03:41:29;26.53;;;18.53;;
11090;SDS011;5599;52.210;21.046;2022-12-20T03:43:58;27.17;;;18.90;;
11090;SDS011;5599;52.210;21.046;2022-12-20T03:46:30;26.37;;;18.63;;
11090;SDS011;5599;52.210;21.046;2022-12-20T03:48:59;28.03;;;18.33;;
11090;SDS011;5599;52.210;21.046;2022-12-20T03:51:28;26.47;;;17.97;;
11090;SDS011;5599;52.210;21.046;2022-12-20T03:53:58;26.43;;;17.93;;
11090;SDS011;5599;52.210;21.046;2022-12-20T03:56:44;24.57;;;17.40;;
11090;SDS011;5599;52.210;21.046;2022-12-20T03:59:14;26.57;;;17.50;;
11090;SDS011;5599;52.210;21.046;2022-12-20T04:01:45;27.43;;;18.30;;
11090;SDS011;5599;52.210;21.046;2022-12-20T04:04:14;23.33;;;16.43;;
11090;SDS011;5599;52.210;21.046;2022-12-20T04:06:43;22.57;;;16.17;;
11090;SDS011;5599;52.210;21.046;2022-12-20T04:09:14;30.87;;;18.20;;
11090;SDS011;5599;52.210;21.046;2022-12-20T04:11:48;26.37;;;18.40;;
11090;SDS011;5599;52.210;21.046;2022-12-20T04:14:17;23.87;;;17.27;;
11090;SDS011;5599;52.210;21.046;2022-12-20T04:16:48;27.47;;;18.00;;
11090;SDS011;5599;52.210;21.046;2022-12-20T04:19:21;26.53;;;18.63;;
11090;SDS011;5599;52.210;21.046;2022-12-20T04:21:50;24.13;;;16.60;;
11090;SDS011;5599;52.210;21.046;2022-12-20T04:24:41;24.63;;;16.63;;
11090;SDS011;5599;52.210;21.046;2022-12-20T04:27:21;27.40;;;16.63;;
11090;SDS011;5599;52.210;21.046;2022-12-20T04:29:52;27.37;;;17.93;;
11090;SDS011;5599;52.210;21.046;2022-12-20T04:32:23;24.60;;;17.33;;
11090;SDS011;5599;52.210;21.046;2022-12-20T04:34:52;22.37;;;15.30;;
11090;SDS011;5599;52.210;21.046;2022-12-20T04:37:21;27.70;;;17.53;;
11090;SDS011;5599;52.210;21.046;2022-12-20T04:39:52;23.53;;;17.10;;
11090;SDS011;5599;52.210;21.046;2022-12-20T04:42:36;26.57;;;16.47;;
11090;SDS011;5599;52.210;21.046;2022-12-20T04:45:07;23.73;;;16.67;;
11090;SDS011;5599;52.210;21.046;2022-12-20T04:47:38;24.20;;;16.00;;
11090;SDS011;5599;52.210;21.046;2022-12-20T04:50:09;26.27;;;16.77;;
11090;SDS011;5599;52.210;21.046;2022-12-20T04:52:41;24.20;;;16.17;;
11090;SDS011;5599;52.210;21.046;2022-12-20T04:55:28;25.83;;;16.80;;
11090;SDS011;5599;52.210;21.046;2022-12-20T04:57:57;26.87;;;17.23;;
11090;SDS011;5599;52.210;21.046;2022-12-20T05:00:35;24.00;;;16.40;;
11090;SDS011;5599;52.210;21.046;2022-12-20T05:03:17;21.40;;;16.03;;
11090;SDS011;5599;52.210;21.046;2022-12-20T05:05:47;24.33;;;16.27;;
11090;SDS011;5599;52.210;21.046;2022-12-20T05:08:16;29.07;;;16.03;;
11090;SDS011;5599;52.210;21.046;2022-12-20T05:10:48;23.07;;;16.30;;
11090;SDS011;5599;52.210;21.046;2022-12-20T05:13:17;25.03;;;16.40;;
11090;SDS011;5599;52.210;21.046;2022-12-20T05:15:49;22.00;;;16.47;;
11090;SDS011;5599;52.210;21.046;2022-12-20T05:18:24;22.30;;;15.87;;
11090;SDS011;5599;52.210;21.046;2022-12-20T05:21:00;20.67;;;14.90;;
11090;SDS011;5599;52.210;21.046;2022-12-20T05:23:51;23.77;;;17.07;;
11090;SDS011;5599;52.210;21.046;2022-12-20T05:27:06;22.80;;;15.67;;
11090;SDS011;5599;52.210;21.046;2022-12-20T05:29:36;24.63;;;16.00;;
11090;SDS011;5599;52.210;21.046;2022-12-20T05:32:05;23.50;;;16.40;;
11090;SDS011;5599;52.210;21.046;2022-12-20T05:34:39;24.40;;;16.17;;
11090;SDS011;5599;52.210;21.046;2022-12-20T05:37:09;26.73;;;16.67;;
11090;SDS011;5599;52.210;21.046;2022-12-20T05:39:40;27.90;;;16.50;;
11090;SDS011;5599;52.210;21.046;2022-12-20T05:42:15;23.37;;;16.37;;
11090;SDS011;5599;52.210;21.046;2022-12-20T05:44:48;22.37;;;15.80;;
11090;SDS011;5599;52.210;21.046;2022-12-20T05:47:18;21.77;;;15.87;;
11090;SDS011;5599;52.210;21.046;2022-12-20T05:49:54;24.03;;;14.97;;
11090;SDS011;5599;52.210;21.046;2022-12-20T05:52:24;23.07;;;15.97;;
11090;SDS011;5599;52.210;21.046;2022-12-20T05:54:53;23.53;;;16.43;;
11090;SDS011;5599;52.210;21.046;2022-12-20T05:57:24;21.20;;;15.67;;
11090;SDS011;5599;52.210;21.046;2022-12-20T05:59:53;21.60;;;16.23;;
11090;SDS011;5599;52.210;21.046;2022-12-20T06:02:24;21.30;;;15.40;;
11090;SDS011;5599;52.210;21.046;2022-12-20T06:05:01;23.47;;;16.17;;
11090;SDS011;5599;52.210;21.046;2022-12-20T06:07:31;22.87;;;15.13;;
11090;SDS011;5599;52.210;21.046;2022-12-20T06:10:00;21.10;;;14.93;;
11090;SDS011;5599;52.210;21.046;2022-12-20T06:12:42;21.27;;;14.43;;
11090;SDS011;5599;52.210;21.046;2022-12-20T06:15:11;22.57;;;14.93;;
11090;SDS011;5599;52.210;21.046;2022-12-20T06:17:41;23.23;;;15.20;;
11090;SDS011;5599;52.210;21.046;2022-12-20T06:20:13;22.20;;;14.47;;
11090;SDS011;5599;52.210;21.046;2022-12-20T06:22:45;18.73;;;14.37;;
11090;SDS011;5599;52.210;21.046;2022-12-20T06:25:14;21.67;;;14.20;;
11090;SDS011;5599;52.210;21.046;2022-12-20T06:27:45;24.80;;;16.40;;
11090;SDS011;5599;52.210;21.046;2022-12-20T06:30:15;19.33;;;13.43;;
11090;SDS011;5599;52.210;21.046;2022-12-20T06:32:57;20.80;;;14.43;;
11090;SDS011;5599;52.210;21.046;2022-12-20T06:35:28;19.13;;;14.03;;
11090;SDS011;5599;52.210;21.046;2022-12-20T06:37:58;22.93;;;14.63;;
11090;SDS011;5599;52.210;21.046;2022-12-20T06:40:31;21.07;;;14.47;;
11090;SDS011;5599;52.210;21.046;2022-12-20T06:43:00;25.83;;;15.13;;
11090;SDS011;5599;52.210;21.046;2022-12-20T06:45:29;19.87;;;13.67;;
11090;SDS011;5599;52.210;21.046;2022-12-20T06:48:07;22.23;;;14.20;;
11090;SDS011;5599;52.210;21.046;2022-12-20T06:50:39;22.93;;;14.07;;
11090;SDS011;5599;52.210;21.046;2022-12-20T06:53:08;22.60;;;14.47;;
11090;SDS011;5599;52.210;21.046;2022-12-20T06:55:38;20.57;;;14.27;;
11090;SDS011;5599;52.210;21.046;2022-12-20T06:58:07;21.53;;;13.17;;
11090;SDS011;5599;52.210;21.046;2022-12-20T07:00:37;21.70;;;13.77;;
11090;SDS011;5599;52.210;21.046;2022-12-20T07:03:06;20.87;;;14.50;;
11090;SDS011;5599;52.210;21.046;2022-12-20T07:05:35;20.13;;;14.73;;
11090;SDS011;5599;52.210;21.046;2022-12-20T07:08:06;23.90;;;15.00;;
11090;SDS011;5599;52.210;21.046;2022-12-20T07:10:36;31.57;;;14.43;;
11090;SDS011;5599;52.210;21.046;2022-12-20T07:13:05;18.23;;;13.80;;
11090;SDS011;5599;52.210;21.046;2022-12-20T07:15:35;19.57;;;14.30;;
11090;SDS011;5599;52.210;21.046;2022-12-20T07:18:04;24.57;;;14.57;;
11090;SDS011;5599;52.210;21.046;2022-12-20T07:20:33;19.63;;;13.80;;
11090;SDS011;5599;52.210;21.046;2022-12-20T07:23:02;17.73;;;13.33;;
11090;SDS011;5599;52.210;21.046;2022-12-20T07:25:33;21.00;;;15.30;;
11090;SDS011;5599;52.210;21.046;2022-12-20T07:28:02;20.13;;;15.07;;
11090;SDS011;5599;52.210;21.046;2022-12-20T07:30:31;21.53;;;14.10;;
11090;SDS011;5599;52.210;21.046;2022-12-20T07:33:01;20.07;;;14.23;;
11090;SDS011;5599;52.210;21.046;2022-12-20T07:35:30;20.90;;;14.27;;
11090;SDS011;5599;52.210;21.046;2022-12-20T07:37:59;24.27;;;14.00;;
11090;SDS011;5599;52.210;21.046;2022-12-20T07:40:29;21.37;;;14.77;;
11090;SDS011;5599;52.210;21.046;2022-12-20T07:42:59;22.30;;;14.60;;
11090;SDS011;5599;52.210;21.046;2022-12-20T07:45:28;21.40;;;14.17;;
11090;SDS011;5599;52.210;21.046;2022-12-20T07:47:57;24.93;;;14.97;;
11090;SDS011;5599;52.210;21.046;2022-12-20T07:50:36;22.50;;;14.73;;
11090;SDS011;5599;52.210;21.046;2022-12-20T07:53:06;21.27;;;15.13;;
11090;SDS011;5599;52.210;21.046;2022-12-20T07:55:36;19.97;;;14.00;;
11090;SDS011;5599;52.210;21.046;2022-12-20T07:58:09;21.37;;;14.93;;
11090;SDS011;5599;52.210;21.046;2022-12-20T08:00:40;21.70;;;15.10;;
11090;SDS011;5599;52.210;21.046;2022-12-20T08:03:10;21.90;;;14.60;;
11090;SDS011;5599;52.210;21.046;2022-12-20T08:05:44;20.50;;;15.27;;
11090;SDS011;5599;52.210;21.046;2022-12-20T08:08:18;21.80;;;15.50;;
11090;SDS011;5599;52.210;21.046;2022-12-20T08:10:48;20.00;;;14.60;;
11090;SDS011;5599;52.210;21.046;2022-12-20T08:13:19;20.20;;;14.73;;
11090;SDS011;5599;52.210;21.046;2022-12-20T08:15:49;22.50;;;14.83;;
11090;SDS011;5599;52.210;21.046;2022-12-20T08:18:18;20.70;;;14.80;;
11090;SDS011;5599;52.210;21.046;2022-12-20T08:20:47;20.73;;;14.63;;
11090;SDS011;5599;52.210;21.046;2022-12-20T08:23:16;21.03;;;14.93;;
11090;SDS011;5599;52.210;21.046;2022-12-20T08:25:45;21.43;;;14.90;;
11090;SDS011;5599;52.210;21.046;2022-12-20T08:28:14;19.97;;;14.33;;
11090;SDS011;5599;52.210;21.046;2022-12-20T08:30:44;20.73;;;14.30;;
11090;SDS011;5599;52.210;21.046;2022-12-20T08:33:14;21.80;;;14.80;;
11090;SDS011;5599;52.210;21.046;2022-12-20T08:35:44;21.40;;;14.57;;
11090;SDS011;5599;52.210;21.046;2022-12-20T08:38:13;22.57;;;14.23;;
11090;SDS011;5599;52.210;21.046;2022-12-20T08:40:42;20.47;;;13.47;;
11090;SDS011;5599;52.210;21.046;2022-12-20T08:43:11;21.77;;;16.00;;
11090;SDS011;5599;52.210;21.046;2022-12-20T08:45:40;20.77;;;15.33;;
11090;SDS011;5599;52.210;21.046;2022-12-20T08:48:11;20.17;;;14.60;;
11090;SDS011;5599;52.210;21.046;2022-12-20T08:50:40;23.03;;;15.33;;
11090;SDS011;5599;52.210;21.046;2022-12-20T08:53:09;22.40;;;15.30;;
11090;SDS011;5599;52.210;21.046;2022-12-20T08:55:39;22.17;;;15.00;;
11090;SDS011;5599;52.210;21.046;2022-12-20T08:58:08;19.47;;;14.27;;
11090;SDS011;5599;52.210;21.046;2022-12-20T09:00:37;22.37;;;15.73;;
11090;SDS011;5599;52.210;21.046;2022-12-20T09:03:06;22.87;;;15.43;;
11090;SDS011;5599;52.210;21.046;2022-12-20T09:05:43;19.97;;;15.57;;
11090;SDS011;5599;52.210;21.046;2022-12-20T09:08:13;20.00;;;15.10;;
11090;SDS011;5599;52.210;21.046;2022-12-20T09:10:43;20.87;;;14.97;;
11090;SDS011;5599;52.210;21.046;2022-12-20T09:13:12;20.90;;;15.27;;
11090;SDS011;5599;52.210;21.046;2022-12-20T09:15:41;22.70;;;16.30;;
11090;SDS011;5599;52.210;21.046;2022-12-20T09:18:11;21.13;;;16.27;;
11090;SDS011;5599;52.210;21.046;2022-12-20T09:20:42;21.97;;;15.43;;
11090;SDS011;5599;52.210;21.046;2022-12-20T09:23:12;21.63;;;15.90;;
11090;SDS011;5599;52.210;21.046;2022-12-20T09:25:41;21.90;;;16.03;;
11090;SDS011;5599;52.210;21.046;2022-12-20T09:28:17;21.67;;;15.47;;
11090;SDS011;5599;52.210;21.046;2022-12-20T09:30:47;24.17;;;15.93;;
11090;SDS011;5599;52.210;21.046;2022-12-20T09:33:16;24.90;;;17.00;;
11090;SDS011;5599;52.210;21.046;2022-12-20T09:35:46;25.03;;;16.93;;
11090;SDS011;5599;52.210;21.046;2022-12-20T09:38:16;22.20;;;16.47;;
11090;SDS011;5599;52.210;21.046;2022-12-20T09:40:45;21.33;;;15.73;;
11090;SDS011;5599;52.210;21.046;2022-12-20T09:43:16;21.93;;;16.23;;
11090;SDS011;5599;52.210;21.046;2022-12-20T09:45:48;23.47;;;16.67;;
11090;SDS011;5599;52.210;21.046;2022-12-20T09:48:21;26.70;;;18.37;;
11090;SDS011;5599;52.210;21.046;2022-12-20T09:50:55;21.53;;;16.03;;
11090;SDS011;5599;52.210;21.046;2022-12-20T09:53:36;23.90;;;17.63;;
11090;SDS011;5599;52.210;21.046;2022-12-20T09:56:16;21.13;;;16.60;;
11090;SDS011;5599;52.210;21.046;2022-12-20T09:58:56;22.57;;;16.60;;
11090;SDS011;5599;52.210;21.046;2022-12-20T10:01:29;23.07;;;15.87;;
11090;SDS011;5599;52.210;21.046;2022-12-20T10:04:06;21.77;;;15.97;;
11090;SDS011;5599;52.210;21.046;2022-12-20T10:06:46;23.53;;;17.03;;
11090;SDS011;5599;52.210;21.046;2022-12-20T10:09:31;21.57;;;15.90;;
11090;SDS011;5599;52.210;21.046;2022-12-20T10:12:29;24.90;;;17.43;;
11090;SDS011;5599;52.210;21.046;2022-12-20T10:15:17;22.70;;;15.70;;
11090;SDS011;5599;52.210;21.046;2022-12-20T10:18:00;21.70;;;16.67;;
11090;SDS011;5599;52.210;21.046;2022-12-20T10:20:43;23.33;;;16.83;;
11090;SDS011;5599;52.210;21.046;2022-12-20T10:23:22;23.43;;;17.10;;
11090;SDS011;5599;52.210;21.046;2022-12-20T10:25:59;22.93;;;17.63;;
11090;SDS011;5599;52.210;21.046;2022-12-20T10:28:29;22.43;;;16.73;;
11090;SDS011;5599;52.210;21.046;2022-12-20T10:31:01;24.73;;;18.50;;
11090;SDS011;5599;52.210;21.046;2022-12-20T10:33:34;23.13;;;17.60;;
11090;SDS011;5599;52.210;21.046;2022-12-20T10:36:20;22.73;;;17.63;;
11090;SDS011;5599;52.210;21.046;2022-12-20T10:38:54;24.50;;;17.57;;
11090;SDS011;5599;52.210;21.046;2022-12-20T10:41:24;24.37;;;17.80;;
11090;SDS011;5599;52.210;21.046;2022-12-20T10:43:56;26.37;;;19.37;;
11090;SDS011;5599;52.210;21.046;2022-12-20T10:46:34;23.93;;;17.53;;
11090;SDS011;5599;52.210;21.046;2022-12-20T10:49:20;23.03;;;17.20;;
11090;SDS011;5599;52.210;21.046;2022-12-20T10:51:58;25.03;;;18.03;;
11090;SDS011;5599;52.210;21.046;2022-12-20T10:54:33;24.93;;;18.53;;
11090;SDS011;5599;52.210;21.046;2022-12-20T10:57:11;26.77;;;18.40;;
11090;SDS011;5599;52.210;21.046;2022-12-20T10:59:48;25.90;;;18.43;;
11090;SDS011;5599;52.210;21.046;2022-12-20T11:02:24;26.93;;;18.70;;
11090;SDS011;5599;52.210;21.046;2022-12-20T11:05:16;24.47;;;18.30;;
11090;SDS011;5599;52.210;21.046;2022-12-20T11:07:52;24.83;;;18.77;;
11090;SDS011;5599;52.210;21.046;2022-12-20T11:10:44;25.40;;;18.70;;
11090;SDS011;5599;52.210;21.046;2022-12-20T11:13:18;26.00;;;18.57;;
11090;SDS011;5599;52.210;21.046;2022-12-20T11:15:52;27.07;;;18.87;;
11090;SDS011;5599;52.210;21.046;2022-12-20T11:18:31;24.17;;;17.57;;
11090;SDS011;5599;52.210;21.046;2022-12-20T11:21:18;25.87;;;18.23;;
11090;SDS011;5599;52.210;21.046;2022-12-20T11:24:08;28.07;;;19.27;;
11090;SDS011;5599;52.210;21.046;2022-12-20T11:26:47;27.87;;;18.20;;
11090;SDS011;5599;52.210;21.046;2022-12-20T11:29:31;31.50;;;19.10;;
11090;SDS011;5599;52.210;21.046;2022-12-20T11:32:18;27.33;;;18.03;;
11090;SDS011;5599;52.210;21.046;2022-12-20T11:34:59;26.67;;;18.97;;
11090;SDS011;5599;52.210;21.046;2022-12-20T11:37:35;29.67;;;20.27;;
11090;SDS011;5599;52.210;21.046;2022-12-20T11:40:15;26.77;;;18.57;;
11090;SDS011;5599;52.210;21.046;2022-12-20T11:43:02;29.33;;;19.63;;
11090;SDS011;5599;52.210;21.046;2022-12-20T11:45:46;27.43;;;18.97;;
11090;SDS011;5599;52.210;21.046;2022-12-20T11:48:40;26.00;;;20.27;;
11090;SDS011;5599;52.210;21.046;2022-12-20T11:51:21;26.60;;;19.40;;
11090;SDS011;5599;52.210;21.046;2022-12-20T11:53:54;28.90;;;19.10;;
11090;SDS011;5599;52.210;21.046;2022-12-20T11:56:29;24.80;;;18.50;;
11090;SDS011;5599;52.210;21.046;2022-12-20T11:59:11;25.23;;;19.30;;
11090;SDS011;5599;52.210;21.046;2022-12-20T12:01:48;28.73;;;19.20;;
11090;SDS011;5599;52.210;21.046;2022-12-20T12:04:24;26.67;;;19.57;;
11090;SDS011;5599;52.210;21.046;2022-12-20T12:06:58;25.97;;;19.03;;
11090;SDS011;5599;52.210;21.046;2022-12-20T12:09:34;29.77;;;19.93;;
11090;SDS011;5599;52.210;21.046;2022-12-20T12:12:09;28.10;;;19.87;;
11090;SDS011;5599;52.210;21.046;2022-12-20T12:14:47;27.17;;;18.97;;
11090;SDS011;5599;52.210;21.046;2022-12-20T12:17:23;28.07;;;19.60;;
11090;SDS011;5599;52.210;21.046;2022-12-20T12:20:03;29.80;;;20.87;;
11090;SDS011;5599;52.210;21.046;2022-12-20T12:22:46;28.67;;;19.93;;
11090;SDS011;5599;52.210;21.046;2022-12-20T12:25:18;26.77;;;19.13;;
11090;SDS011;5599;52.210;21.046;2022-12-20T12:27:48;28.07;;;19.37;;
11090;SDS011;5599;52.210;21.046;2022-12-20T12:30:18;26.90;;;20.43;;
11090;SDS011;5599;52.210;21.046;2022-12-20T12:32:49;28.63;;;19.73;;
11090;SDS011;5599;52.210;21.046;2022-12-20T12:35:30;25.03;;;18.60;;
11090;SDS011;5599;52.210;21.046;2022-12-20T12:38:15;26.93;;;18.80;;
11090;SDS011;5599;52.210;21.046;2022-12-20T12:41:18;26.37;;;19.40;;
11090;SDS011;5599;52.210;21.046;2022-12-20T12:43:58;26.27;;;19.93;;
11090;SDS011;5599;52.210;21.046;2022-12-20T12:46:51;25.47;;;19.13;;
11090;SDS011;5599;52.210;21.046;2022-12-20T12:49:26;29.10;;;19.63;;
11090;SDS011;5599;52.210;21.046;2022-12-20T12:51:58;26.17;;;20.53;;
11090;SDS011;5599;52.210;21.046;2022-12-20T12:54:35;28.53;;;19.70;;
11090;SDS011;5599;52.210;21.046;2022-12-20T12:57:09;30.00;;;20.00;;
11090;SDS011;5599;52.210;21.046;2022-12-20T12:59:41;26.30;;;19.47;;
11090;SDS011;5599;52.210;21.046;2022-12-20T13:02:34;28.70;;;18.57;;
11090;SDS011;5599;52.210;21.046;2022-12-20T13:05:29;28.30;;;20.37;;
11090;SDS011;5599;52.210;21.046;2022-12-20T13:08:02;27.23;;;19.23;;
11090;SDS011;5599;52.210;21.046;2022-12-20T13:10:56;28.93;;;20.47;;
11090;SDS011;5599;52.210;21.046;2022-12-20T13:13:27;27.10;;;18.73;;
11090;SDS011;5599;52.210;21.046;2022-12-20T13:16:04;31.50;;;20.47;;
11090;SDS011;5599;52.210;21.046;2022-12-20T13:18:39;29.33;;;19.47;;
11090;SDS011;5599;52.210;21.046;2022-12-20T13:21:42;30.13;;;19.73;;
11090;SDS011;5599;52.210;21.046;2022-12-20T13:35:57;27.87;;;20.30;;
11090;SDS011;5599;52.210;21.046;2022-12-20T13:38:36;24.93;;;19.67;;
11090;SDS011;5599;52.210;21.046;2022-12-20T13:41:22;31.37;;;21.70;;
11090;SDS011;5599;52.210;21.046;2022-12-20T13:47:00;28.13;;;20.50;;
11090;SDS011;5599;52.210;21.046;2022-12-20T13:49:35;29.77;;;21.37;;
11090;SDS011;5599;52.210;21.046;2022-12-20T13:52:12;28.27;;;21.03;;
11090;SDS011;5599;52.210;21.046;2022-12-20T13:54:51;29.13;;;20.03;;
11090;SDS011;5599;52.210;21.046;2022-12-20T13:57:26;32.73;;;21.17;;
11090;SDS011;5599;52.210;21.046;2022-12-20T13:59:59;28.67;;;20.40;;
11090;SDS011;5599;52.210;21.046;2022-12-20T14:02:34;32.47;;;21.77;;
11090;SDS011;5599;52.210;21.046;2022-12-20T14:05:13;35.13;;;21.60;;
11090;SDS011;5599;52.210;21.046;2022-12-20T14:07:47;33.10;;;20.23;;
11090;SDS011;5599;52.210;21.046;2022-12-20T14:10:23;33.73;;;21.07;;
11090;SDS011;5599;52.210;21.046;2022-12-20T14:12:54;30.27;;;21.33;;
11090;SDS011;5599;52.210;21.046;2022-12-20T14:15:25;28.27;;;21.37;;
11090;SDS011;5599;52.210;21.046;2022-12-20T14:17:56;30.33;;;21.27;;
11090;SDS011;5599;52.210;21.046;2022-12-20T14:20:32;28.83;;;21.00;;
11090;SDS011;5599;52.210;21.046;2022-12-20T14:23:04;29.30;;;21.23;;
11090;SDS011;5599;52.210;21.046;2022-12-20T14:25:39;27.37;;;20.27;;
11090;SDS011;5599;52.210;21.046;2022-12-20T14:28:14;31.33;;;21.27;;
11090;SDS011;5599;52.210;21.046;2022-12-20T14:30:53;26.37;;;19.87;;
11090;SDS011;5599;52.210;21.046;2022-12-20T14:33:28;27.40;;;20.00;;
11090;SDS011;5599;52.210;21.046;2022-12-20T14:36:16;33.00;;;21.23;;
11090;SDS011;5599;52.210;21.046;2022-12-20T14:38:48;29.47;;;20.40;;
11090;SDS011;5599;52.210;21.046;2022-12-20T14:41:29;29.87;;;21.67;;
11090;SDS011;5599;52.210;21.046;2022-12-20T14:44:12;29.97;;;21.67;;
11090;SDS011;5599;52.210;21.046;2022-12-20T14:46:48;28.87;;;20.97;;
11090;SDS011;5599;52.210;21.046;2022-12-20T14:49:22;27.97;;;20.90;;
11090;SDS011;5599;52.210;21.046;2022-12-20T14:52:06;31.17;;;20.67;;
11090;SDS011;5599;52.210;21.046;2022-12-20T14:54:44;31.20;;;20.60;;
11090;SDS011;5599;52.210;21.046;2022-12-20T14:57:41;29.20;;;20.77;;
11090;SDS011;5599;52.210;21.046;2022-12-20T15:00:14;30.03;;;20.60;;
11090;SDS011;5599;52.210;21.046;2022-12-20T15:02:49;29.20;;;20.90;;
11090;SDS011;5599;52.210;21.046;2022-12-20T15:08:15;30.43;;;20.17;;
11090;SDS011;5599;52.210;21.046;2022-12-20T15:10:56;30.40;;;20.77;;
11090;SDS011;5599;52.210;21.046;2022-12-20T15:13:31;28.10;;;19.73;;
11090;SDS011;5599;52.210;21.046;2022-12-20T15:16:01;28.47;;;20.97;;
11090;SDS011;5599;52.210;21.046;2022-12-20T15:18:32;27.67;;;21.03;;
11090;SDS011;5599;52.210;21.046;2022-12-20T15:21:02;30.00;;;20.63;;